Agua Colorada, Argentina
Current Conditions -  °F | °C
As of 8:00 AM on Monday 22 Dec 2014 (Local Time) from SACO Reporting Station
Clear Clear  
Wind Chill: 59°   Ceiling: Unl
Heat Index: 59°   Visibility: 6mi
Dew Point: 39°   Wind: 3mph
Humidity: 48%   Direction: 250°WSW
Pressure: 30.21"   Gusts: NA
Location:  30.76°S, 66.23°W
Report Text: SACO 221100Z 25003KT CAVOK 15/04 Q1023
Loading
Personal Weather Stations






























Interactive Weather Map New forecast layout! Learn more

10-Day Weather Forecast

Advertisements
Track Severe Weather on mobile